Aviation Digital Data Service (ADDS)

Output produced by METARs form (0436 UTC 29 July 2014)
found at http://aviationweather.gov/adds/metars/
 
KPHL 282322Z 2900/3006 30012G20KT P6SM BKN050 
     TEMPO 2900/2901 -SHRA OVC035 
     FM290200 30012KT P6SM SCT050 BKN100 
     FM290600 30008KT P6SM SCT050 
     FM291600 27008KT P6SM SCT050